SCX9961 KDCA-KLGA
Flight info
| Callsign | SCX9961 |
|---|---|
| Flight time | 0h 39m |
| Altitude | 27000 |
| Route | DOCTR5 AGARD SPEAK PROUD2 |
| Aircraft | B738/M-SDE2E3FGHIRWXY/LB1 |
Departure
| Time | 2026-05-06 00:57 |
|---|---|
| Airport | Ronald Reagan Washington National Airport (KDCA) |
Arrival
| Time | 2026-05-06 01:36 |
|---|---|
| Airport | LaGuardia Airport (KLGA) |
| Time | Latitude | Longitude | Altitude | Speed | Heading |
|---|---|---|---|---|---|
| 2026-05-06 00:41 | 38.84681 | -77.04340 | 27 ft | 0 kts | 89° |
| 2026-05-06 00:47 | 38.84681 | -77.04346 | 27 ft | 2 kts | 90° |
| 2026-05-06 00:47 | 38.84681 | -77.04366 | 28 ft | 2 kts | 89° |
| 2026-05-06 00:47 | 38.84681 | -77.04382 | 28 ft | 2 kts | 88° |
| 2026-05-06 00:47 | 38.84678 | -77.04401 | 28 ft | 2 kts | 63° |
| 2026-05-06 00:48 | 38.84669 | -77.04417 | 28 ft | 2 kts | 44° |
| 2026-05-06 00:48 | 38.84660 | -77.04426 | 28 ft | 1 kts | 27° |
| 2026-05-06 00:48 | 38.84652 | -77.04435 | 28 ft | 2 kts | 62° |
| 2026-05-06 00:48 | 38.84645 | -77.04451 | 28 ft | 2 kts | 52° |
| 2026-05-06 00:49 | 38.84636 | -77.04466 | 28 ft | 2 kts | 56° |
| 2026-05-06 00:49 | 38.84627 | -77.04482 | 28 ft | 1 kts | 54° |
| 2026-05-06 00:49 | 38.84623 | -77.04489 | 28 ft | 0 kts | 53° |
| 2026-05-06 00:51 | 38.84626 | -77.04485 | 28 ft | 1 kts | 53° |
| 2026-05-06 00:51 | 38.84642 | -77.04449 | 28 ft | 5 kts | 69° |
| 2026-05-06 00:51 | 38.84620 | -77.04385 | 26 ft | 13 kts | 130° |
| 2026-05-06 00:52 | 38.84566 | -77.04285 | 24 ft | 14 kts | 98° |
| 2026-05-06 00:52 | 38.84580 | -77.04161 | 25 ft | 13 kts | 78° |
| 2026-05-06 00:52 | 38.84596 | -77.04044 | 24 ft | 14 kts | 90° |
| 2026-05-06 00:52 | 38.84660 | -77.03949 | 23 ft | 18 kts | 26° |
| 2026-05-06 00:53 | 38.84780 | -77.03886 | 24 ft | 18 kts | 11° |
| 2026-05-06 00:53 | 38.84911 | -77.03893 | 24 ft | 19 kts | 355° |
| 2026-05-06 00:53 | 38.85045 | -77.03908 | 25 ft | 19 kts | 355° |
| 2026-05-06 00:53 | 38.85177 | -77.03921 | 26 ft | 18 kts | 355° |
| 2026-05-06 00:54 | 38.85313 | -77.03932 | 25 ft | 20 kts | 356° |
| 2026-05-06 00:54 | 38.85446 | -77.03944 | 25 ft | 11 kts | 355° |
| 2026-05-06 00:54 | 38.85532 | -77.03954 | 25 ft | 13 kts | 355° |
| 2026-05-06 00:54 | 38.85575 | -77.03958 | 24 ft | 0 kts | 355° |
| 2026-05-06 00:55 | 38.85576 | -77.03958 | 24 ft | 1 kts | 355° |
| 2026-05-06 00:55 | 38.85639 | -77.03965 | 23 ft | 14 kts | 355° |
| 2026-05-06 00:55 | 38.85751 | -77.03976 | 23 ft | 17 kts | 356° |
| 2026-05-06 00:56 | 38.85871 | -77.03987 | 22 ft | 17 kts | 356° |
| 2026-05-06 00:56 | 38.85980 | -77.03964 | 20 ft | 15 kts | 15° |
| 2026-05-06 00:56 | 38.86075 | -77.03919 | 19 ft | 12 kts | 43° |
| 2026-05-06 00:56 | 38.86029 | -77.03864 | 19 ft | 24 kts | 175° |
| 2026-05-06 00:57 | 38.85557 | -77.03817 | 23 ft | 109 kts | 177° |
| 2026-05-06 00:57 | 38.84550 | -77.03703 | 56 ft | 174 kts | 176° |
| 2026-05-06 00:57 | 38.83338 | -77.03578 | 1058 ft | 175 kts | 179° |
| 2026-05-06 00:57 | 38.82183 | -77.03402 | 2008 ft | 178 kts | 176° |
| 2026-05-06 00:58 | 38.80930 | -77.03093 | 2703 ft | 191 kts | 175° |
| 2026-05-06 00:58 | 38.79585 | -77.02775 | 3397 ft | 203 kts | 176° |
| 2026-05-06 00:58 | 38.78137 | -77.02447 | 3965 ft | 226 kts | 173° |
| 2026-05-06 00:58 | 38.76635 | -77.01623 | 4739 ft | 247 kts | 151° |
| 2026-05-06 00:59 | 38.75473 | -76.99880 | 4970 ft | 270 kts | 120° |
| 2026-05-06 00:59 | 38.75067 | -76.97516 | 5019 ft | 277 kts | 98° |
| 2026-05-06 00:59 | 38.75102 | -76.95022 | 5039 ft | 291 kts | 86° |
| 2026-05-06 00:59 | 38.75773 | -76.92451 | 5655 ft | 313 kts | 60° |
| 2026-05-06 01:00 | 38.77068 | -76.90286 | 6727 ft | 312 kts | 44° |
| 2026-05-06 01:00 | 38.78767 | -76.88618 | 7846 ft | 306 kts | 29° |
| 2026-05-06 01:00 | 38.80597 | -76.87247 | 8760 ft | 309 kts | 26° |
| 2026-05-06 01:00 | 38.82476 | -76.85919 | 9701 ft | 311 kts | 26° |
| 2026-05-06 01:01 | 38.84351 | -76.84556 | 10551 ft | 317 kts | 28° |
| 2026-05-06 01:01 | 38.86205 | -76.82851 | 11048 ft | 338 kts | 42° |
| 2026-05-06 01:01 | 38.87638 | -76.80396 | 11605 ft | 355 kts | 60° |
| 2026-05-06 01:01 | 38.88775 | -76.77493 | 12113 ft | 371 kts | 65° |
| 2026-05-06 01:02 | 38.89836 | -76.74438 | 12595 ft | 387 kts | 66° |
| 2026-05-06 01:02 | 38.90937 | -76.71246 | 13400 ft | 393 kts | 65° |
| 2026-05-06 01:02 | 38.92051 | -76.68094 | 14287 ft | 395 kts | 65° |
| 2026-05-06 01:02 | 38.93225 | -76.64849 | 15067 ft | 401 kts | 64° |
| 2026-05-06 01:03 | 38.94413 | -76.61620 | 15852 ft | 405 kts | 65° |
| 2026-05-06 01:03 | 38.95580 | -76.58328 | 16609 ft | 410 kts | 67° |
| 2026-05-06 01:03 | 38.96693 | -76.54966 | 17369 ft | 414 kts | 68° |
| 2026-05-06 01:03 | 38.97793 | -76.51524 | 18117 ft | 418 kts | 69° |
| 2026-05-06 01:04 | 38.98895 | -76.48050 | 18811 ft | 423 kts | 68° |
| 2026-05-06 01:04 | 38.99958 | -76.44527 | 19465 ft | 428 kts | 72° |
| 2026-05-06 01:04 | 39.00800 | -76.40869 | 20143 ft | 430 kts | 77° |
| 2026-05-06 01:04 | 39.01265 | -76.37044 | 20733 ft | 434 kts | 88° |
| 2026-05-06 01:05 | 39.01290 | -76.33117 | 20909 ft | 443 kts | 95° |
| 2026-05-06 01:05 | 39.01143 | -76.29173 | 20920 ft | 443 kts | 92° |
| 2026-05-06 01:05 | 39.01344 | -76.25256 | 20932 ft | 446 kts | 83° |
| 2026-05-06 01:05 | 39.02067 | -76.21321 | 20939 ft | 464 kts | 72° |
| 2026-05-06 01:06 | 39.03479 | -76.17508 | 20926 ft | 471 kts | 57° |
| 2026-05-06 01:06 | 39.05396 | -76.14175 | 20926 ft | 458 kts | 49° |
| 2026-05-06 01:06 | 39.07458 | -76.11194 | 20922 ft | 440 kts | 46° |
| 2026-05-06 01:06 | 39.09519 | -76.08379 | 20927 ft | 429 kts | 45° |
| 2026-05-06 01:07 | 39.11566 | -76.05557 | 20926 ft | 432 kts | 46° |
| 2026-05-06 01:07 | 39.13600 | -76.02636 | 20927 ft | 438 kts | 48° |
| 2026-05-06 01:07 | 39.15582 | -75.99639 | 20912 ft | 440 kts | 49° |
| 2026-05-06 01:07 | 39.17493 | -75.96618 | 20923 ft | 437 kts | 50° |
| 2026-05-06 01:08 | 39.19394 | -75.93520 | 20927 ft | 437 kts | 51° |
| 2026-05-06 01:08 | 39.21265 | -75.90418 | 20932 ft | 440 kts | 51° |
| 2026-05-06 01:08 | 39.23138 | -75.87286 | 20925 ft | 438 kts | 51° |
| 2026-05-06 01:08 | 39.24972 | -75.84202 | 20938 ft | 438 kts | 51° |
| 2026-05-06 01:09 | 39.26821 | -75.81081 | 20938 ft | 438 kts | 51° |
| 2026-05-06 01:09 | 39.28679 | -75.77940 | 20936 ft | 438 kts | 52° |
| 2026-05-06 01:09 | 39.30508 | -75.74841 | 20939 ft | 438 kts | 51° |
| 2026-05-06 01:09 | 39.32368 | -75.71687 | 20935 ft | 439 kts | 52° |
| 2026-05-06 01:10 | 39.34204 | -75.68568 | 20940 ft | 439 kts | 52° |
| 2026-05-06 01:10 | 39.36055 | -75.65421 | 20940 ft | 440 kts | 52° |
| 2026-05-06 01:10 | 39.37891 | -75.62299 | 20933 ft | 439 kts | 52° |
| 2026-05-06 01:10 | 39.39735 | -75.59157 | 20942 ft | 437 kts | 51° |
| 2026-05-06 01:11 | 39.41582 | -75.56007 | 20940 ft | 438 kts | 52° |
| 2026-05-06 01:11 | 39.43431 | -75.52854 | 20946 ft | 439 kts | 52° |
| 2026-05-06 01:11 | 39.45267 | -75.49719 | 20923 ft | 438 kts | 52° |
| 2026-05-06 01:11 | 39.47086 | -75.46613 | 20919 ft | 436 kts | 52° |
| 2026-05-06 01:12 | 39.48913 | -75.43489 | 20932 ft | 438 kts | 51° |
| 2026-05-06 01:12 | 39.50766 | -75.40316 | 20918 ft | 439 kts | 51° |
| 2026-05-06 01:12 | 39.52586 | -75.37196 | 20925 ft | 437 kts | 52° |
| 2026-05-06 01:12 | 39.54436 | -75.34020 | 20931 ft | 436 kts | 52° |
| 2026-05-06 01:13 | 39.56277 | -75.30857 | 20914 ft | 438 kts | 52° |
| 2026-05-06 01:13 | 39.58085 | -75.27746 | 20890 ft | 436 kts | 52° |
| 2026-05-06 01:13 | 39.59912 | -75.24606 | 20959 ft | 438 kts | 52° |
| 2026-05-06 01:13 | 39.61755 | -75.21432 | 20913 ft | 440 kts | 52° |
| 2026-05-06 01:14 | 39.65447 | -75.15114 | 20916 ft | 435 kts | 51° |
| 2026-05-06 01:14 | 39.67352 | -75.12180 | 20712 ft | 426 kts | 45° |
| 2026-05-06 01:14 | 39.69504 | -75.09582 | 20341 ft | 419 kts | 37° |
| 2026-05-06 01:15 | 39.71853 | -75.07297 | 19837 ft | 422 kts | 33° |
| 2026-05-06 01:15 | 39.74301 | -75.05167 | 19191 ft | 426 kts | 31° |
| 2026-05-06 01:15 | 39.76793 | -75.03091 | 18561 ft | 424 kts | 31° |
| 2026-05-06 01:15 | 39.79282 | -75.01041 | 17910 ft | 423 kts | 31° |
| 2026-05-06 01:16 | 39.81757 | -74.98996 | 17259 ft | 422 kts | 31° |
| 2026-05-06 01:16 | 39.84193 | -74.96953 | 16675 ft | 419 kts | 31° |
| 2026-05-06 01:16 | 39.86620 | -74.94872 | 16039 ft | 417 kts | 32° |
| 2026-05-06 01:16 | 39.89029 | -74.92728 | 15395 ft | 416 kts | 33° |
| 2026-05-06 01:17 | 39.91333 | -74.90499 | 14728 ft | 416 kts | 38° |
| 2026-05-06 01:17 | 39.93480 | -74.87985 | 14061 ft | 415 kts | 43° |
| 2026-05-06 01:17 | 39.95497 | -74.85298 | 13393 ft | 414 kts | 45° |
| 2026-05-06 01:17 | 39.97420 | -74.82567 | 12738 ft | 413 kts | 46° |
| 2026-05-06 01:18 | 39.99330 | -74.79783 | 12069 ft | 411 kts | 46° |
| 2026-05-06 01:18 | 40.01222 | -74.77011 | 11392 ft | 409 kts | 46° |
| 2026-05-06 01:18 | 40.03104 | -74.74264 | 11071 ft | 397 kts | 46° |
| 2026-05-06 01:18 | 40.04908 | -74.71641 | 10931 ft | 381 kts | 46° |
| 2026-05-06 01:19 | 40.06643 | -74.69131 | 10768 ft | 367 kts | 46° |
| 2026-05-06 01:19 | 40.08321 | -74.66710 | 10634 ft | 354 kts | 46° |
| 2026-05-06 01:19 | 40.09959 | -74.64349 | 10528 ft | 341 kts | 46° |
| 2026-05-06 01:19 | 40.11532 | -74.62081 | 10394 ft | 329 kts | 45° |
| 2026-05-06 01:20 | 40.13036 | -74.59912 | 10295 ft | 317 kts | 46° |
| 2026-05-06 01:20 | 40.14492 | -74.57814 | 10157 ft | 308 kts | 45° |
| 2026-05-06 01:20 | 40.15923 | -74.55750 | 10045 ft | 301 kts | 45° |
| 2026-05-06 01:20 | 40.17319 | -74.53735 | 10035 ft | 304 kts | 45° |
| 2026-05-06 01:21 | 40.18766 | -74.51646 | 10081 ft | 309 kts | 45° |
| 2026-05-06 01:21 | 40.20194 | -74.49586 | 10043 ft | 308 kts | 45° |
| 2026-05-06 01:21 | 40.21679 | -74.47579 | 10039 ft | 304 kts | 41° |
| 2026-05-06 01:21 | 40.23206 | -74.45669 | 10024 ft | 306 kts | 40° |
| 2026-05-06 01:22 | 40.24763 | -74.43759 | 10022 ft | 307 kts | 40° |
| 2026-05-06 01:22 | 40.26323 | -74.41830 | 10031 ft | 306 kts | 40° |
| 2026-05-06 01:22 | 40.27859 | -74.39906 | 10023 ft | 306 kts | 40° |
| 2026-05-06 01:22 | 40.29384 | -74.37983 | 10038 ft | 308 kts | 41° |
| 2026-05-06 01:23 | 40.30928 | -74.36027 | 10027 ft | 307 kts | 41° |
| 2026-05-06 01:23 | 40.32467 | -74.34076 | 10030 ft | 307 kts | 41° |
| 2026-05-06 01:23 | 40.33997 | -74.32134 | 10020 ft | 308 kts | 41° |
| 2026-05-06 01:23 | 40.35533 | -74.30186 | 10027 ft | 307 kts | 42° |
| 2026-05-06 01:24 | 40.37070 | -74.28237 | 10018 ft | 308 kts | 41° |
| 2026-05-06 01:24 | 40.38613 | -74.26280 | 10004 ft | 307 kts | 42° |
| 2026-05-06 01:24 | 40.40154 | -74.24322 | 10007 ft | 308 kts | 41° |
| 2026-05-06 01:24 | 40.41699 | -74.22360 | 10003 ft | 310 kts | 41° |
| 2026-05-06 01:25 | 40.43245 | -74.20397 | 9983 ft | 307 kts | 41° |
| 2026-05-06 01:25 | 40.44922 | -74.18735 | 9930 ft | 299 kts | 22° |
| 2026-05-06 01:25 | 40.46860 | -74.17793 | 9416 ft | 300 kts | 10° |
| 2026-05-06 01:25 | 40.48902 | -74.17118 | 8814 ft | 307 kts | 8° |
| 2026-05-06 01:26 | 40.50982 | -74.16478 | 8435 ft | 306 kts | 8° |
| 2026-05-06 01:26 | 40.53031 | -74.15850 | 8115 ft | 303 kts | 8° |
| 2026-05-06 01:26 | 40.55106 | -74.15211 | 7606 ft | 306 kts | 7° |
| 2026-05-06 01:26 | 40.57172 | -74.14567 | 7275 ft | 304 kts | 8° |
| 2026-05-06 01:27 | 40.59220 | -74.13921 | 6924 ft | 303 kts | 8° |
| 2026-05-06 01:27 | 40.61245 | -74.13066 | 6473 ft | 310 kts | 20° |
| 2026-05-06 01:27 | 40.63161 | -74.11700 | 6119 ft | 311 kts | 27° |
| 2026-05-06 01:27 | 40.65017 | -74.10215 | 5749 ft | 311 kts | 28° |
| 2026-05-06 01:28 | 40.66871 | -74.08723 | 5366 ft | 310 kts | 27° |
| 2026-05-06 01:28 | 40.68713 | -74.07249 | 5033 ft | 308 kts | 28° |
| 2026-05-06 01:28 | 40.70538 | -74.05795 | 4651 ft | 308 kts | 27° |
| 2026-05-06 01:28 | 40.72391 | -74.04336 | 4313 ft | 306 kts | 27° |
| 2026-05-06 01:29 | 40.74213 | -74.02910 | 4025 ft | 303 kts | 28° |
| 2026-05-06 01:29 | 40.76018 | -74.01500 | 4008 ft | 303 kts | 27° |
| 2026-05-06 01:29 | 40.77852 | -74.00081 | 4003 ft | 306 kts | 27° |
| 2026-05-06 01:29 | 40.79685 | -73.98660 | 4023 ft | 301 kts | 27° |
| 2026-05-06 01:30 | 40.81434 | -73.97295 | 4009 ft | 286 kts | 27° |
| 2026-05-06 01:30 | 40.83122 | -73.95969 | 3928 ft | 276 kts | 27° |
| 2026-05-06 01:30 | 40.84761 | -73.94681 | 3844 ft | 266 kts | 28° |
| 2026-05-06 01:30 | 40.86302 | -73.93464 | 3851 ft | 250 kts | 28° |
| 2026-05-06 01:31 | 40.87605 | -73.92005 | 3551 ft | 251 kts | 56° |
| 2026-05-06 01:31 | 40.88329 | -73.89963 | 3274 ft | 241 kts | 77° |
| 2026-05-06 01:31 | 40.88808 | -73.87914 | 3132 ft | 225 kts | 78° |
| 2026-05-06 01:31 | 40.89276 | -73.85972 | 2947 ft | 214 kts | 77° |
| 2026-05-06 01:32 | 40.89730 | -73.84145 | 2736 ft | 205 kts | 77° |
| 2026-05-06 01:32 | 40.90156 | -73.82394 | 2511 ft | 197 kts | 85° |
| 2026-05-06 01:32 | 40.90118 | -73.80716 | 2159 ft | 174 kts | 124° |
| 2026-05-06 01:32 | 40.89390 | -73.79723 | 1986 ft | 137 kts | 169° |
| 2026-05-06 01:33 | 40.88508 | -73.79349 | 2085 ft | 138 kts | 176° |
| 2026-05-06 01:33 | 40.87575 | -73.79535 | 1999 ft | 135 kts | 210° |
| 2026-05-06 01:33 | 40.86823 | -73.80250 | 1909 ft | 134 kts | 216° |
| 2026-05-06 01:33 | 40.86022 | -73.80922 | 1736 ft | 135 kts | 211° |
| 2026-05-06 01:34 | 40.85254 | -73.81539 | 1436 ft | 125 kts | 212° |
| 2026-05-06 01:34 | 40.84542 | -73.82134 | 1231 ft | 115 kts | 212° |
| 2026-05-06 01:34 | 40.83904 | -73.82694 | 1214 ft | 111 kts | 211° |
| 2026-05-06 01:34 | 40.83213 | -73.83263 | 1145 ft | 122 kts | 212° |
| 2026-05-06 01:35 | 40.82494 | -73.83837 | 1024 ft | 119 kts | 210° |
| 2026-05-06 01:35 | 40.81768 | -73.84405 | 723 ft | 124 kts | 211° |
| 2026-05-06 01:35 | 40.81040 | -73.84988 | 612 ft | 119 kts | 212° |
| 2026-05-06 01:35 | 40.80352 | -73.85577 | 447 ft | 120 kts | 212° |
| 2026-05-06 01:36 | 40.79642 | -73.86171 | 312 ft | 118 kts | 210° |
| 2026-05-06 01:36 | 40.78926 | -73.86746 | 118 ft | 123 kts | 211° |
| 2026-05-06 01:36 | 40.78204 | -73.87353 | 11 ft | 116 kts | 210° |
| 2026-05-06 01:36 | 40.77746 | -73.87723 | 15 ft | 41 kts | 213° |
| 2026-05-06 01:37 | 40.77618 | -73.87831 | 17 ft | 10 kts | 212° |
| 2026-05-06 01:37 | 40.77562 | -73.87839 | 17 ft | 8 kts | 137° |
| 2026-05-06 01:37 | 40.77541 | -73.87778 | 17 ft | 6 kts | 96° |
| 2026-05-06 01:37 | 40.77544 | -73.87723 | 17 ft | 5 kts | 90° |
| 2026-05-06 01:38 | 40.77528 | -73.87672 | 17 ft | 8 kts | 123° |
| 2026-05-06 01:38 | 40.77497 | -73.87608 | 17 ft | 8 kts | 122° |
| 2026-05-06 01:38 | 40.77471 | -73.87543 | 17 ft | 7 kts | 102° |
| 2026-05-06 01:38 | 40.77474 | -73.87470 | 17 ft | 8 kts | 89° |
| 2026-05-06 01:39 | 40.77470 | -73.87404 | 15 ft | 2 kts | 92° |
| 2026-05-06 01:39 | 40.77501 | -73.87381 | 14 ft | 6 kts | 13° |
| 2026-05-06 01:39 | 40.77515 | -73.87377 | 14 ft | 0 kts | 11° |